createdAt,value
2023-04-11T00:00:22.671Z,977.04
2023-04-11T00:00:52.009Z,977.14
2023-04-11T00:01:24.701Z,977.14
2023-04-11T00:01:55.790Z,977.14
2023-04-11T00:02:28.878Z,977.14
2023-04-11T00:03:00.213Z,977.21
2023-04-11T00:03:33.082Z,977.21
2023-04-11T00:04:04.007Z,977.14
2023-04-11T00:04:36.742Z,977.14
2023-04-11T00:05:08.226Z,977.31
2023-04-11T00:05:40.803Z,977.31
2023-04-11T00:06:11.806Z,977.21
2023-04-11T00:06:44.839Z,977.21
2023-04-11T00:07:16.025Z,977.21
2023-04-11T00:07:48.763Z,977.14
2023-04-11T00:08:19.837Z,977.14
2023-04-11T00:08:52.732Z,977.21
2023-04-11T00:09:23.804Z,977.21
2023-04-11T00:09:56.591Z,977.14
2023-04-11T00:10:28.227Z,977.14
2023-04-11T00:11:00.709Z,977.31
2023-04-11T00:11:31.782Z,977.31
2023-04-11T00:12:04.881Z,976.84
2023-04-11T00:12:36.074Z,976.84
2023-04-11T00:13:08.628Z,977.31
2023-04-11T00:13:39.845Z,977.31
2023-04-11T00:14:13.750Z,976.94
2023-04-11T00:14:43.878Z,976.94
2023-04-11T00:15:17.752Z,977.21
2023-04-11T00:16:20.894Z,977.21
2023-04-11T00:16:51.866Z,977.14
2023-04-11T00:17:24.795Z,977.14
2023-04-11T00:17:56.267Z,976.94
2023-04-11T00:18:28.851Z,976.94
2023-04-11T00:18:59.842Z,977.21
2023-04-11T00:19:32.790Z,977.21
2023-04-11T00:20:04.317Z,977.14
2023-04-11T00:20:36.796Z,977.14
2023-04-11T00:21:07.790Z,976.84
2023-04-11T00:21:40.689Z,976.84
2023-04-11T00:22:11.997Z,976.94
2023-04-11T00:22:44.810Z,976.94
2023-04-11T00:23:15.964Z,976.94
2023-04-11T00:23:48.878Z,977.04
2023-04-11T00:24:19.901Z,977.04
2023-04-11T00:24:52.602Z,976.94
2023-04-11T00:25:24.244Z,976.94
2023-04-11T00:25:56.687Z,976.84
2023-04-11T00:26:27.854Z,976.84
2023-04-11T00:27:00.790Z,976.73
2023-04-11T00:27:31.972Z,976.73
2023-04-11T00:28:04.622Z,977.04
2023-04-11T00:28:35.811Z,977.04
2023-04-11T00:29:08.766Z,977.14
2023-04-11T00:29:39.984Z,977.14
2023-04-11T00:30:13.445Z,976.94
2023-04-11T00:30:44.126Z,976.94
2023-04-11T00:31:16.895Z,976.63
2023-04-11T00:31:47.930Z,976.84
2023-04-11T00:32:20.784Z,976.84
2023-04-11T00:32:51.958Z,976.84
2023-04-11T00:33:24.582Z,976.84
2023-04-11T00:33:55.881Z,976.94
2023-04-11T00:34:28.809Z,976.94
2023-04-11T00:35:00.054Z,976.84
2023-04-11T00:35:32.868Z,976.84
2023-04-11T00:36:04.168Z,976.73
2023-04-11T00:36:36.867Z,976.73
2023-04-11T00:37:07.847Z,976.53
2023-04-11T00:37:40.709Z,976.53
2023-04-11T00:38:11.981Z,976.73
2023-04-11T00:38:44.875Z,976.73
2023-04-11T00:39:15.905Z,976.84
2023-04-11T00:39:48.599Z,976.63
2023-04-11T00:40:20.222Z,976.63
2023-04-11T00:40:52.511Z,976.43
2023-04-11T00:41:23.852Z,976.43
2023-04-11T00:41:56.646Z,976.53
2023-04-11T00:42:27.859Z,976.53
2023-04-11T00:43:00.730Z,976.53
2023-04-11T00:43:31.918Z,976.53
2023-04-11T00:44:04.773Z,976.43
2023-04-11T00:44:35.983Z,976.43
2023-04-11T00:45:09.832Z,976.63
2023-04-11T00:45:40.055Z,976.63
2023-04-11T00:46:12.856Z,976.53
2023-04-11T00:46:46.014Z,976.53
2023-04-11T00:47:16.811Z,976.63
2023-04-11T00:47:47.958Z,976.33
2023-04-11T00:48:20.582Z,976.33
2023-04-11T00:48:51.818Z,976.43
2023-04-11T00:49:24.887Z,976.43
2023-04-11T00:49:55.932Z,976.33
2023-04-11T00:50:28.944Z,976.33
2023-04-11T00:50:59.902Z,976.12
2023-04-11T00:51:32.797Z,976.12
2023-04-11T00:52:03.805Z,976.33
2023-04-11T00:52:36.756Z,976.33
2023-04-11T00:53:07.886Z,976.33
2023-04-11T00:53:41.023Z,976.33
2023-04-11T00:54:11.788Z,976.33
2023-04-11T00:54:44.708Z,976.33
2023-04-11T00:55:16.202Z,976.53
2023-04-11T00:55:48.562Z,976.33
2023-04-11T00:56:19.857Z,976.33
2023-04-11T00:56:52.734Z,976.23
2023-04-11T00:57:23.866Z,976.23
2023-04-11T00:57:56.687Z,976.53
2023-04-11T00:58:27.989Z,976.53
2023-04-11T00:59:00.793Z,976.33
2023-04-11T00:59:31.814Z,976.33
2023-04-11T01:00:06.222Z,976.53
2023-04-11T01:00:36.112Z,976.53
2023-04-11T01:01:08.898Z,976.73
2023-04-11T01:01:39.826Z,976.73
2023-04-11T01:02:12.958Z,976.63
2023-04-11T01:02:44.027Z,976.63
2023-04-11T01:03:16.810Z,976.63
2023-04-11T01:03:48.057Z,976.73
2023-04-11T01:04:20.811Z,976.73
2023-04-11T01:04:51.942Z,976.53
2023-04-11T01:05:24.965Z,976.53
2023-04-11T01:05:55.860Z,976.53
2023-04-11T01:06:28.844Z,976.53
2023-04-11T01:06:59.938Z,976.63
2023-04-11T01:07:32.714Z,976.63
2023-04-11T01:08:03.898Z,976.33
2023-04-11T01:08:37.014Z,976.33
2023-04-11T01:09:07.814Z,976.53
2023-04-11T01:09:40.668Z,976.53
2023-04-11T01:10:12.257Z,976.43
2023-04-11T01:10:44.650Z,976.43
2023-04-11T01:11:15.840Z,976.43
2023-04-11T01:11:48.843Z,976.63
2023-04-11T01:12:20.030Z,976.63
2023-04-11T01:12:52.825Z,976.33
2023-04-11T01:13:23.962Z,976.33
2023-04-11T01:13:56.827Z,976.33
2023-04-11T01:14:27.796Z,976.33
2023-04-11T01:15:02.336Z,976.43
2023-04-11T01:15:31.952Z,976.43
2023-04-11T01:16:04.900Z,976.43
2023-04-11T01:16:35.928Z,976.43
2023-04-11T01:17:08.762Z,976.23
2023-04-11T01:17:39.934Z,976.23
2023-04-11T01:18:12.708Z,976.43
2023-04-11T01:18:43.794Z,976.43
2023-04-11T01:19:00.173Z,976.53
2023-04-11T01:19:31.836Z,976.53
2023-04-11T01:20:04.171Z,976.43
2023-04-11T01:20:35.905Z,976.43
2023-04-11T01:21:07.791Z,976.53
2023-04-11T01:21:40.696Z,976.53
2023-04-11T01:22:12.039Z,976.53
2023-04-11T01:22:44.840Z,976.53
2023-04-11T01:23:15.880Z,976.43
2023-04-11T01:23:48.712Z,976.53
2023-04-11T01:24:20.187Z,976.53
2023-04-11T01:24:52.568Z,976.43
2023-04-11T01:25:24.274Z,976.43
2023-04-11T01:25:56.762Z,976.53
2023-04-11T01:26:27.950Z,976.53
2023-04-11T01:27:00.949Z,976.73
2023-04-11T01:27:32.037Z,976.73
2023-04-11T01:28:05.192Z,976.63
2023-04-11T01:28:36.031Z,976.63
2023-04-11T01:29:08.956Z,976.33
2023-04-11T01:29:40.032Z,976.33
2023-04-11T01:30:13.977Z,976.63
2023-04-11T01:30:44.176Z,976.63
2023-04-11T01:31:17.062Z,976.73
2023-04-11T01:31:47.936Z,976.53
2023-04-11T01:32:21.198Z,976.53
2023-04-11T01:32:52.092Z,976.43
2023-04-11T01:33:24.997Z,976.43
2023-04-11T01:33:55.897Z,976.43
2023-04-11T01:34:28.678Z,976.43
2023-04-11T01:35:00.016Z,976.73
2023-04-11T01:35:33.156Z,976.73
2023-04-11T01:36:04.098Z,976.63
2023-04-11T01:36:36.910Z,976.63
2023-04-11T01:37:08.163Z,976.73
2023-04-11T01:37:41.000Z,976.73
2023-04-11T01:38:12.095Z,976.43
2023-04-11T01:38:45.056Z,976.43
2023-04-11T01:39:16.018Z,976.53
2023-04-11T01:39:48.989Z,976.33
2023-04-11T01:40:20.519Z,976.33
2023-04-11T01:40:52.930Z,976.43
2023-04-11T01:41:24.031Z,976.43
2023-04-11T01:41:57.756Z,976.43
2023-04-11T01:42:28.314Z,976.43
2023-04-11T01:43:00.990Z,976.73
2023-04-11T01:43:32.054Z,976.73
2023-04-11T01:44:04.999Z,976.53
2023-04-11T01:44:36.229Z,976.53
2023-04-11T01:45:09.828Z,976.53
2023-04-11T01:45:40.288Z,976.53
2023-04-11T01:46:13.039Z,976.43
2023-04-11T01:46:43.995Z,976.43
2023-04-11T01:47:17.064Z,976.43
2023-04-11T01:48:20.959Z,976.73
2023-04-11T01:48:52.098Z,976.63
2023-04-11T01:49:24.863Z,976.63
2023-04-11T01:49:56.056Z,976.53
2023-04-11T01:50:29.004Z,976.53
2023-04-11T01:51:00.009Z,976.53
2023-04-11T01:51:33.007Z,976.53
2023-04-11T01:52:03.897Z,976.63
2023-04-11T01:52:36.710Z,976.63
2023-04-11T01:53:07.940Z,976.53
2023-04-11T01:53:40.683Z,976.53
2023-04-11T01:54:11.923Z,976.43
2023-04-11T01:54:44.802Z,976.43
2023-04-11T01:55:16.254Z,976.43
2023-04-11T01:55:49.004Z,976.43
2023-04-11T01:56:20.075Z,976.43
2023-04-11T01:56:52.934Z,976.33
2023-04-11T01:57:24.008Z,976.33
2023-04-11T01:57:57.020Z,976.53
2023-04-11T01:58:28.126Z,976.53
2023-04-11T01:59:00.959Z,976.33
2023-04-11T01:59:31.963Z,976.33
2023-04-11T02:00:06.340Z,976.23
2023-04-11T02:00:36.318Z,976.23
2023-04-11T02:01:09.058Z,976.12
2023-04-11T02:01:40.100Z,976.12
2023-04-11T02:02:13.193Z,976.43
2023-04-11T02:02:43.967Z,976.43
2023-04-11T02:03:00.313Z,976.43
2023-04-11T02:03:32.250Z,976.43
2023-04-11T02:04:04.145Z,976.53
2023-04-11T02:04:36.921Z,976.53
2023-04-11T02:05:08.409Z,976.43
2023-04-11T02:05:40.891Z,976.43
2023-04-11T02:06:12.055Z,976.33
2023-04-11T02:06:44.899Z,976.33
2023-04-11T02:07:15.950Z,976.23
2023-04-11T02:07:49.006Z,976.43
2023-04-11T02:08:20.174Z,976.43
2023-04-11T02:08:53.063Z,976.43
2023-04-11T02:09:24.032Z,976.43
2023-04-11T02:09:56.853Z,976.12
2023-04-11T02:10:28.345Z,976.12
2023-04-11T02:11:00.963Z,976.33
2023-04-11T02:11:31.999Z,976.33
2023-04-11T02:12:05.058Z,976.33
2023-04-11T02:12:36.169Z,976.33
2023-04-11T02:13:08.950Z,976.53
2023-04-11T02:13:39.981Z,976.53
2023-04-11T02:14:12.722Z,976.43
2023-04-11T02:14:43.854Z,976.43
2023-04-11T02:15:17.682Z,976.43
2023-04-11T02:15:48.187Z,976.43
2023-04-11T02:16:21.017Z,976.43
2023-04-11T02:16:51.897Z,976.12
2023-04-11T02:17:24.902Z,976.12
2023-04-11T02:17:56.308Z,976.23
2023-04-11T02:18:28.728Z,976.23
2023-04-11T02:18:59.982Z,976.33
2023-04-11T02:19:32.809Z,976.33
2023-04-11T02:20:04.265Z,976.33
2023-04-11T02:20:37.972Z,976.33
2023-04-11T02:21:07.912Z,976.43
2023-04-11T02:21:40.813Z,976.43
2023-04-11T02:22:11.916Z,976.43
2023-04-11T02:22:44.769Z,976.43
2023-04-11T02:23:16.007Z,976.33
2023-04-11T02:23:48.896Z,976.33
2023-04-11T02:24:20.058Z,976.33
2023-04-11T02:24:52.750Z,976.33
2023-04-11T02:25:24.264Z,976.33
2023-04-11T02:25:56.728Z,976.23
2023-04-11T02:26:27.871Z,976.23
2023-04-11T02:27:01.677Z,976.23
2023-04-11T02:27:31.756Z,976.23
2023-04-11T02:28:07.416Z,976.12
2023-04-11T02:28:36.101Z,976.12
2023-04-11T02:29:08.873Z,976.02
2023-04-11T02:29:39.962Z,976.02
2023-04-11T02:30:13.792Z,976.02
2023-04-11T02:30:44.322Z,976.02
2023-04-11T02:31:16.958Z,975.82
2023-04-11T02:31:48.161Z,976.02
2023-04-11T02:32:21.186Z,976.02
2023-04-11T02:32:52.174Z,975.92
2023-04-11T02:33:24.877Z,975.92
2023-04-11T02:33:56.060Z,975.92
2023-04-11T02:34:28.834Z,975.92
2023-04-11T02:35:00.081Z,975.92
2023-04-11T02:35:34.230Z,975.92
2023-04-11T02:36:04.233Z,976.12
2023-04-11T02:36:37.800Z,976.12
2023-04-11T02:37:08.013Z,976.23
2023-04-11T02:37:41.203Z,976.23
2023-04-11T02:38:12.233Z,976.12
2023-04-11T02:38:44.746Z,976.12
2023-04-11T02:39:16.083Z,976.12
2023-04-11T02:39:48.882Z,976.12
2023-04-11T02:40:20.387Z,976.12
2023-04-11T02:40:52.753Z,976.02
2023-04-11T02:41:23.979Z,976.02
2023-04-11T02:41:56.704Z,976.12
2023-04-11T02:42:27.854Z,976.12
2023-04-11T02:43:00.967Z,975.92
2023-04-11T02:43:31.986Z,975.92
2023-04-11T02:44:04.940Z,976.02
2023-04-11T02:44:35.953Z,976.02
2023-04-11T02:45:09.800Z,976.02
2023-04-11T02:45:40.088Z,976.02
2023-04-11T02:46:14.209Z,975.82
2023-04-11T02:46:43.934Z,975.82
2023-04-11T02:47:16.723Z,975.72
2023-04-11T02:47:47.960Z,976.02
2023-04-11T02:48:20.772Z,976.02
2023-04-11T02:48:51.892Z,976.12
2023-04-11T02:49:24.847Z,976.12
2023-04-11T02:49:55.785Z,976.02
2023-04-11T02:50:28.971Z,976.02
2023-04-11T02:50:59.956Z,975.82
2023-04-11T02:51:32.573Z,975.82
2023-04-11T02:52:03.792Z,975.92
2023-04-11T02:52:37.644Z,975.92
2023-04-11T02:53:07.982Z,975.62
2023-04-11T02:53:40.645Z,975.62
2023-04-11T02:54:11.894Z,976.02
2023-04-11T02:54:44.749Z,976.02
2023-04-11T02:55:16.111Z,975.82
2023-04-11T02:55:48.736Z,975.82
2023-04-11T02:56:20.046Z,975.82
2023-04-11T02:56:52.881Z,975.72
2023-04-11T02:57:23.831Z,975.72
2023-04-11T02:57:56.737Z,975.72
2023-04-11T02:58:27.979Z,975.72
2023-04-11T02:59:02.481Z,975.72
2023-04-11T02:59:31.959Z,975.72
2023-04-11T03:00:06.297Z,975.62
2023-04-11T03:00:35.808Z,975.62
2023-04-11T03:01:08.604Z,975.92
2023-04-11T03:01:40.032Z,975.92
2023-04-11T03:02:14.612Z,975.72
2023-04-11T03:02:43.887Z,975.72
2023-04-11T03:03:19.066Z,975.82
2023-04-11T03:03:48.113Z,975.52
2023-04-11T03:04:20.783Z,975.52
2023-04-11T03:04:51.833Z,975.62
2023-04-11T03:05:25.016Z,975.62
2023-04-11T03:05:56.020Z,975.62
2023-04-11T03:06:28.653Z,975.62
2023-04-11T03:07:00.008Z,975.62
2023-04-11T03:07:35.783Z,975.62
2023-04-11T03:08:03.882Z,975.72
2023-04-11T03:08:36.686Z,975.72
2023-04-11T03:09:07.942Z,975.82
2023-04-11T03:09:40.765Z,975.82
2023-04-11T03:10:12.245Z,975.82
2023-04-11T03:10:44.886Z,975.82
2023-04-11T03:11:16.075Z,975.82
2023-04-11T03:11:48.811Z,975.92
2023-04-11T03:12:19.993Z,975.92
2023-04-11T03:12:52.803Z,975.82
2023-04-11T03:13:24.097Z,975.82
2023-04-11T03:13:57.596Z,975.82
2023-04-11T03:14:27.935Z,975.82
2023-04-11T03:15:08.845Z,975.72
2023-04-11T03:15:32.017Z,975.72
2023-04-11T03:16:03.983Z,975.82
2023-04-11T03:16:37.045Z,975.82
2023-04-11T03:17:08.078Z,975.62
2023-04-11T03:17:40.756Z,975.62
2023-04-11T03:18:12.225Z,975.62
2023-04-11T03:18:44.836Z,975.62
2023-04-11T03:19:16.138Z,975.82
2023-04-11T03:19:48.770Z,975.92
2023-04-11T03:20:20.488Z,975.92
2023-04-11T03:20:52.625Z,975.82
2023-04-11T03:21:23.993Z,975.82
2023-04-11T03:21:57.054Z,976.02
2023-04-11T03:22:28.107Z,976.02
2023-04-11T03:23:00.835Z,975.72
2023-04-11T03:23:32.125Z,975.72
2023-04-11T03:24:04.946Z,975.72
2023-04-11T03:24:36.404Z,975.72
2023-04-11T03:25:09.113Z,975.82
2023-04-11T03:25:40.096Z,975.82
2023-04-11T03:26:12.997Z,975.62
2023-04-11T03:26:44.032Z,975.62
2023-04-11T03:27:16.998Z,975.72
2023-04-11T03:27:48.103Z,975.72
2023-04-11T03:28:21.009Z,975.72
2023-04-11T03:28:51.939Z,975.82
2023-04-11T03:29:24.872Z,975.82
2023-04-11T03:29:56.072Z,975.82
2023-04-11T03:30:30.159Z,975.82
2023-04-11T03:31:00.157Z,975.82
2023-04-11T03:31:32.944Z,975.82
2023-04-11T03:32:03.908Z,975.72
2023-04-11T03:32:36.927Z,975.72
2023-04-11T03:33:08.091Z,975.92
2023-04-11T03:33:40.733Z,975.92
2023-04-11T03:34:11.965Z,975.92
2023-04-11T03:34:44.813Z,975.92
2023-04-11T03:35:16.215Z,975.72
2023-04-11T03:35:50.754Z,975.82
2023-04-11T03:36:20.020Z,975.82
2023-04-11T03:36:52.874Z,975.82
2023-04-11T03:37:24.068Z,975.82
2023-04-11T03:37:57.043Z,975.82
2023-04-11T03:38:28.013Z,975.82
2023-04-11T03:39:00.747Z,975.82
2023-04-11T03:39:31.965Z,975.82
2023-04-11T03:40:05.093Z,975.52
2023-04-11T03:40:36.111Z,975.52
2023-04-11T03:41:08.868Z,976.02
2023-04-11T03:41:40.001Z,976.02
2023-04-11T03:42:13.092Z,975.92
2023-04-11T03:42:44.180Z,975.92
2023-04-11T03:43:16.986Z,975.62
2023-04-11T03:43:48.040Z,975.72
2023-04-11T03:44:20.984Z,975.72
2023-04-11T03:44:52.220Z,975.92
2023-04-11T03:45:25.985Z,975.92
2023-04-11T03:45:56.210Z,975.82
2023-04-11T03:46:28.976Z,975.82
2023-04-11T03:47:00.053Z,975.82
2023-04-11T03:47:32.938Z,975.82
2023-04-11T03:48:04.189Z,976.02
2023-04-11T03:48:37.075Z,976.02
2023-04-11T03:49:08.101Z,975.92
2023-04-11T03:49:44.847Z,975.92
2023-04-11T03:50:12.519Z,975.82
2023-04-11T03:50:44.086Z,975.82
2023-04-11T03:51:01.029Z,975.92
2023-04-11T03:51:32.000Z,975.92
2023-04-11T03:52:05.693Z,976.02
2023-04-11T03:52:36.180Z,976.02
2023-04-11T03:53:09.139Z,975.72
2023-04-11T03:53:40.030Z,975.72
2023-04-11T03:54:12.895Z,975.92
2023-04-11T03:54:45.383Z,975.92
2023-04-11T03:55:17.227Z,975.92
2023-04-11T03:55:48.077Z,975.82
2023-04-11T03:56:20.947Z,975.82
2023-04-11T03:56:52.318Z,975.82
2023-04-11T03:57:24.821Z,975.82
2023-04-11T03:57:56.130Z,976.02
2023-04-11T03:58:28.960Z,976.02
2023-04-11T03:59:00.352Z,975.72
2023-04-11T03:59:32.966Z,975.72
2023-04-11T04:00:05.690Z,975.82
2023-04-11T04:00:37.214Z,975.82
2023-04-11T04:01:08.118Z,975.92
2023-04-11T04:01:41.025Z,975.92
2023-04-11T04:02:12.388Z,976.02
2023-04-11T04:02:46.098Z,976.02
2023-04-11T04:03:16.324Z,975.82
2023-04-11T04:03:49.203Z,975.82
2023-04-11T04:04:20.231Z,975.82
2023-04-11T04:04:52.998Z,976.12
2023-04-11T04:05:24.456Z,976.12
2023-04-11T04:05:57.778Z,975.92
2023-04-11T04:06:28.075Z,975.92
2023-04-11T04:07:00.941Z,975.92
2023-04-11T04:07:32.092Z,975.92
2023-04-11T04:08:04.985Z,975.92
2023-04-11T04:08:36.013Z,975.92
2023-04-11T04:09:08.921Z,975.82
2023-04-11T04:09:40.060Z,975.82
2023-04-11T04:10:12.965Z,975.72
2023-04-11T04:10:43.896Z,975.72
2023-04-11T04:11:16.848Z,975.62
2023-04-11T04:11:48.059Z,975.92
2023-04-11T04:12:20.977Z,975.92
2023-04-11T04:12:51.982Z,975.72
2023-04-11T04:13:24.944Z,975.72
2023-04-11T04:13:56.216Z,975.92
2023-04-11T04:14:28.621Z,975.92
2023-04-11T04:14:59.988Z,975.82
2023-04-11T04:15:34.075Z,975.82
2023-04-11T04:16:04.211Z,975.72
2023-04-11T04:16:36.685Z,975.72
2023-04-11T04:17:08.050Z,976.02
2023-04-11T04:17:40.848Z,976.02
2023-04-11T04:18:12.022Z,975.82
2023-04-11T04:18:44.859Z,975.82
2023-04-11T04:19:16.038Z,975.82
2023-04-11T04:19:48.933Z,976.02
2023-04-11T04:20:20.311Z,976.02
2023-04-11T04:20:53.079Z,975.82
2023-04-11T04:21:23.937Z,975.82
2023-04-11T04:21:56.721Z,975.72
2023-04-11T04:22:28.010Z,975.72
2023-04-11T04:23:01.540Z,975.72
2023-04-11T04:23:31.869Z,975.72
2023-04-11T04:24:04.730Z,975.62
2023-04-11T04:24:36.055Z,975.62
2023-04-11T04:25:08.806Z,975.62
2023-04-11T04:25:40.010Z,975.62
2023-04-11T04:26:12.880Z,975.82
2023-04-11T04:26:44.119Z,975.82
2023-04-11T04:27:16.682Z,975.72
2023-04-11T04:27:48.006Z,975.62
2023-04-11T04:28:20.775Z,975.62
2023-04-11T04:28:51.893Z,975.72
2023-04-11T04:29:24.793Z,975.72
2023-04-11T04:30:03.359Z,975.72
2023-04-11T04:30:29.947Z,975.72
2023-04-11T04:31:00.110Z,975.72
2023-04-11T04:31:39.928Z,975.72
2023-04-11T04:32:04.210Z,975.72
2023-04-11T04:32:35.998Z,975.72
2023-04-11T04:33:10.934Z,975.72
2023-04-11T04:33:39.991Z,975.72
2023-04-11T04:34:12.726Z,975.52
2023-04-11T04:34:43.986Z,975.52
2023-04-11T04:35:17.257Z,975.82
2023-04-11T04:35:48.242Z,975.62
2023-04-11T04:36:20.849Z,975.62
2023-04-11T04:36:52.018Z,975.62
2023-04-11T04:37:24.817Z,975.62
2023-04-11T04:37:55.903Z,975.62
2023-04-11T04:38:28.806Z,975.62
2023-04-11T04:39:00.197Z,975.72
2023-04-11T04:39:32.852Z,975.72
2023-04-11T04:40:04.427Z,975.72
2023-04-11T04:40:36.866Z,975.72
2023-04-11T04:41:08.057Z,975.72
2023-04-11T04:41:40.810Z,975.72
2023-04-11T04:42:11.980Z,975.82
2023-04-11T04:42:45.046Z,975.82
2023-04-11T04:43:16.115Z,975.82
2023-04-11T04:43:49.592Z,976.12
2023-04-11T04:44:20.031Z,976.12
2023-04-11T04:44:52.741Z,976.02
2023-04-11T04:45:24.882Z,976.02
2023-04-11T04:45:57.043Z,976.12
2023-04-11T04:46:28.170Z,976.12
2023-04-11T04:47:01.146Z,976.02
2023-04-11T04:47:31.993Z,976.02
2023-04-11T04:48:04.952Z,976.33
2023-04-11T04:48:36.259Z,976.33
2023-04-11T04:49:08.930Z,976.02
2023-04-11T04:49:39.977Z,976.02
2023-04-11T04:50:13.075Z,976.02
2023-04-11T04:50:44.048Z,976.02
2023-04-11T04:51:17.197Z,976.02
2023-04-11T04:51:48.081Z,976.02
2023-04-11T04:52:21.134Z,976.02
2023-04-11T04:52:52.182Z,976.12
2023-04-11T04:53:25.202Z,976.12
2023-04-11T04:53:56.523Z,976.12
2023-04-11T04:54:29.357Z,976.12
2023-04-11T04:55:00.724Z,975.92
2023-04-11T04:55:33.872Z,975.92
2023-04-11T04:56:04.116Z,976.12
2023-04-11T04:56:36.846Z,976.12
2023-04-11T04:57:07.920Z,976.23
2023-04-11T04:57:40.994Z,976.23
2023-04-11T04:58:12.173Z,976.12
2023-04-11T04:58:45.050Z,976.12
2023-04-11T04:59:16.228Z,976.33
2023-04-11T04:59:49.968Z,976.33
2023-04-11T05:00:23.099Z,976.33
2023-04-11T05:00:53.020Z,976.12
2023-04-11T05:01:24.168Z,976.12
2023-04-11T05:01:56.948Z,975.92
2023-04-11T05:02:28.346Z,975.92
2023-04-11T05:03:01.423Z,976.23
2023-04-11T05:03:32.444Z,976.23
2023-04-11T05:04:05.252Z,976.23
2023-04-11T05:04:36.304Z,976.23
2023-04-11T05:05:09.431Z,976.12
2023-04-11T05:05:40.147Z,976.12
2023-04-11T05:06:12.982Z,976.12
2023-04-11T05:06:44.320Z,976.12
2023-04-11T05:07:17.214Z,976.02
2023-04-11T05:07:48.192Z,976.02
2023-04-11T05:08:21.059Z,976.02
2023-04-11T05:08:52.351Z,976.12
2023-04-11T05:09:26.983Z,976.12
2023-04-11T05:09:56.238Z,976.23
2023-04-11T05:10:29.495Z,976.23
2023-04-11T05:11:00.371Z,976.23
2023-04-11T05:11:33.190Z,976.23
2023-04-11T05:12:06.703Z,976.12
2023-04-11T05:12:38.184Z,976.12
2023-04-11T05:13:08.465Z,976.33
2023-04-11T05:13:41.454Z,976.33
2023-04-11T05:14:12.651Z,976.33
2023-04-11T05:14:45.356Z,976.33
2023-04-11T05:15:17.248Z,976.53
2023-04-11T05:15:50.260Z,976.23
2023-04-11T05:16:20.380Z,976.23
2023-04-11T05:16:53.377Z,976.53
2023-04-11T05:17:25.488Z,976.53
2023-04-11T05:17:57.827Z,976.53
2023-04-11T05:18:28.464Z,976.53
2023-04-11T05:19:01.448Z,976.53
2023-04-11T05:19:32.699Z,976.53
2023-04-11T05:20:05.332Z,976.73
2023-04-11T05:20:36.494Z,976.73
2023-04-11T05:21:09.262Z,976.63
2023-04-11T05:21:40.499Z,976.63
2023-04-11T05:22:13.216Z,976.84
2023-04-11T05:22:44.369Z,976.84
2023-04-11T05:23:17.298Z,976.63
2023-04-11T05:23:48.293Z,976.63
2023-04-11T05:24:21.239Z,976.63
2023-04-11T05:24:52.463Z,976.63
2023-04-11T05:25:25.702Z,976.63
2023-04-11T05:25:56.375Z,976.63
2023-04-11T05:26:29.268Z,976.63
2023-04-11T05:27:00.373Z,976.84
2023-04-11T05:27:33.164Z,976.84
2023-04-11T05:28:04.310Z,976.94
2023-04-11T05:28:37.239Z,976.94
2023-04-11T05:29:08.428Z,977.14
2023-04-11T05:29:41.026Z,977.14
2023-04-11T05:30:13.173Z,977.04
2023-04-11T05:30:45.364Z,977.04
2023-04-11T05:31:16.287Z,976.94
2023-04-11T05:31:49.193Z,977.04
2023-04-11T05:32:20.481Z,977.04
2023-04-11T05:32:53.183Z,977.04
2023-04-11T05:33:24.242Z,977.04
2023-04-11T05:33:57.602Z,977.14
2023-04-11T05:34:28.414Z,977.14
2023-04-11T05:35:01.415Z,977.21
2023-04-11T05:35:32.240Z,977.21
2023-04-11T05:36:05.236Z,976.84
2023-04-11T05:36:36.142Z,976.84
2023-04-11T05:37:09.206Z,977.14
2023-04-11T05:37:40.330Z,977.14
2023-04-11T05:38:13.082Z,976.84
2023-04-11T05:38:44.204Z,976.84
2023-04-11T05:39:17.905Z,977.04
2023-04-11T05:39:48.369Z,977.21
2023-04-11T05:40:21.265Z,977.21
2023-04-11T05:40:52.231Z,977.14
2023-04-11T05:41:25.200Z,977.14
2023-04-11T05:41:56.134Z,977.14
2023-04-11T05:42:29.160Z,977.14
2023-04-11T05:43:00.369Z,977.14
2023-04-11T05:43:32.981Z,977.14
2023-04-11T05:44:04.130Z,977.21
2023-04-11T05:44:37.393Z,977.21
2023-04-11T05:45:09.251Z,977.14
2023-04-11T05:45:41.261Z,977.14
2023-04-11T05:46:12.329Z,977.21
2023-04-11T05:46:45.239Z,977.21
2023-04-11T05:47:16.228Z,977.14
2023-04-11T05:47:49.126Z,977.31
2023-04-11T05:48:20.242Z,977.31
2023-04-11T05:48:53.202Z,977.14
2023-04-11T05:49:24.180Z,977.14
2023-04-11T05:49:57.097Z,976.94
2023-04-11T05:50:28.678Z,976.94
2023-04-11T05:51:01.050Z,977.21
2023-04-11T05:51:32.289Z,977.21
2023-04-11T05:52:05.224Z,976.63
2023-04-11T05:52:36.364Z,976.63
2023-04-11T05:53:09.180Z,977.31
2023-04-11T05:53:40.234Z,977.31
2023-04-11T05:54:13.193Z,976.84
2023-04-11T05:54:44.095Z,976.84
2023-04-11T05:55:18.326Z,977.14
2023-04-11T05:55:48.311Z,977.14
2023-04-11T05:56:21.241Z,977.14
2023-04-11T05:56:52.335Z,977.14
2023-04-11T05:57:25.228Z,977.14
2023-04-11T05:57:56.443Z,977.14
2023-04-11T05:58:29.223Z,977.14
2023-04-11T05:59:00.444Z,977.31
2023-04-11T05:59:33.268Z,977.31
2023-04-11T06:00:05.957Z,977.14
2023-04-11T06:00:38.058Z,977.14
2023-04-11T06:01:08.616Z,977.04
2023-04-11T06:01:46.811Z,977.04
2023-04-11T06:02:12.491Z,977.04
2023-04-11T06:02:44.829Z,977.04
2023-04-11T06:03:17.275Z,977.31
2023-04-11T06:03:48.673Z,976.84
2023-04-11T06:04:21.482Z,976.84
2023-04-11T06:04:52.601Z,977.31
2023-04-11T06:05:25.770Z,977.31
2023-04-11T06:05:56.490Z,977.04
2023-04-11T06:06:29.135Z,977.04
2023-04-11T06:07:00.428Z,977.21
2023-04-11T06:07:33.224Z,977.21
2023-04-11T06:08:04.382Z,977.31
2023-04-11T06:08:37.232Z,977.31
2023-04-11T06:09:08.465Z,977.21
2023-04-11T06:09:41.104Z,977.21
2023-04-11T06:10:12.512Z,977.21
2023-04-11T06:10:45.387Z,977.21
2023-04-11T06:11:16.132Z,977.04
2023-04-11T06:11:49.037Z,977.14
2023-04-11T06:12:20.284Z,977.14
2023-04-11T06:12:53.389Z,977.21
2023-04-11T06:13:24.193Z,977.21
2023-04-11T06:13:57.283Z,977.21
2023-04-11T06:14:28.336Z,977.21
2023-04-11T06:15:02.518Z,977.31
2023-04-11T06:15:32.433Z,977.31
2023-04-11T06:16:05.373Z,977.21
2023-04-11T06:16:36.228Z,977.21
2023-04-11T06:17:09.021Z,977.21
2023-04-11T06:17:40.332Z,977.21
2023-04-11T06:18:13.191Z,977.21
2023-04-11T06:18:44.104Z,977.21
2023-04-11T06:19:17.093Z,977.04
2023-04-11T06:19:48.383Z,977.14
2023-04-11T06:20:21.341Z,977.14
2023-04-11T06:20:52.293Z,977.41
2023-04-11T06:21:25.117Z,977.41
2023-04-11T06:21:56.358Z,977.14
2023-04-11T06:22:29.277Z,977.14
2023-04-11T06:23:00.317Z,977.31
2023-04-11T06:23:33.339Z,977.31
2023-04-11T06:24:04.461Z,977.31
2023-04-11T06:24:38.454Z,977.31
2023-04-11T06:25:08.411Z,977.31
2023-04-11T06:25:41.284Z,977.31
2023-04-11T06:26:12.479Z,977.31
2023-04-11T06:26:45.276Z,977.31
2023-04-11T06:27:16.278Z,977.31
2023-04-11T06:27:49.032Z,977.31
2023-04-11T06:28:20.261Z,977.31
2023-04-11T06:28:53.065Z,977.21
2023-04-11T06:29:24.345Z,977.21
2023-04-11T06:29:57.050Z,977.21
2023-04-11T06:30:29.404Z,977.21
2023-04-11T06:31:01.266Z,977.31
2023-04-11T06:31:32.249Z,977.31
2023-04-11T06:32:05.159Z,977.14
2023-04-11T06:32:36.291Z,977.14
2023-04-11T06:33:09.290Z,977.21
2023-04-11T06:33:40.239Z,977.21
2023-04-11T06:34:13.144Z,977.31
2023-04-11T06:34:44.295Z,977.31
2023-04-11T06:35:17.433Z,977.31
2023-04-11T06:35:48.240Z,977.41
2023-04-11T06:36:21.163Z,977.41
2023-04-11T06:36:52.348Z,977.41
2023-04-11T06:37:25.090Z,977.41
2023-04-11T06:37:56.160Z,977.41
2023-04-11T06:38:29.242Z,977.41
2023-04-11T06:39:00.083Z,977.41
2023-04-11T06:39:33.143Z,977.41